aviador You're here:

SAME Decoded Metar

MENDOZA in ARGENTINA
Report Time2017-08-18 14:00:00
UTC Time2017-08-18 14:16:51
Flight Rules vfr VFR
Wind110° at 03 kt
W.Decomp.*RWY 18: 1.0 kt HW 2.8 kt LCW
W.Rank110° ranks 7
Current wind is below 110° avg. (5.6)
Visibility9999 m
Phenomena:N/A
Clouds:N/A
Expected CloudBase > 5,200 ft AGL from Temp-Dew spread
CeilingNone
Temp15°C (ISA +5)
Dew Point02°C (42% RH)
AAT12.3°C
QNH1003 hPa
Density Alt3,291 ft
Elevation2,310 ft
Report Wrong Elevation
Raw Report
METAR SAME 181400Z 11003KT CAVOK 15/02 Q1003=

Extra information for SAME:More info

Metar Taf Metar & Taf Last 4 Metars F.Rules Stats Wind Profile Meteogram Temp Stats Airport Information Weather charts Add Link Nearby VenuesMetar ALERT Operation Metar Decoded Social comments